createdAt,value
2023-03-17T00:02:00.675Z,3.36
2023-03-17T00:04:43.781Z,3.28
2023-03-17T00:07:26.344Z,3.28
2023-03-17T00:10:08.840Z,3.20
2023-03-17T00:12:57.652Z,3.10
2023-03-17T00:15:43.806Z,2.86
2023-03-17T00:18:28.624Z,2.81
2023-03-17T00:21:09.378Z,2.81
2023-03-17T00:23:50.134Z,2.88
2023-03-17T00:26:23.432Z,2.74
2023-03-17T00:29:14.250Z,2.58
2023-03-17T00:32:01.070Z,2.44
2023-03-17T00:34:47.053Z,2.62
2023-03-17T00:37:31.683Z,2.46
2023-03-17T00:40:16.472Z,2.68
2023-03-17T00:43:01.943Z,2.57
2023-03-17T00:45:38.630Z,2.57
2023-03-17T00:48:23.598Z,2.63
2023-03-17T00:51:02.208Z,2.51
2023-03-17T00:53:39.389Z,2.53
2023-03-17T00:56:26.557Z,2.33
2023-03-17T00:59:10.616Z,2.48
2023-03-17T01:01:53.520Z,2.22
2023-03-17T01:04:35.530Z,2.10
2023-03-17T01:07:15.957Z,2.02
2023-03-17T01:09:51.046Z,2.08
2023-03-17T01:12:25.549Z,2.27
2023-03-17T01:15:10.218Z,2.25
2023-03-17T01:17:52.268Z,2.30
2023-03-17T01:20:36.317Z,2.10
2023-03-17T01:23:09.397Z,2.18
2023-03-17T01:25:46.380Z,2.24
2023-03-17T01:28:29.367Z,2.24
2023-03-17T01:31:06.952Z,2.19
2023-03-17T01:33:51.414Z,2.39
2023-03-17T01:36:33.359Z,2.17
2023-03-17T01:39:08.503Z,2.35
2023-03-17T01:41:50.101Z,2.16
2023-03-17T01:44:25.882Z,2.10
2023-03-17T01:47:11.097Z,2.26
2023-03-17T01:49:49.006Z,2.18
2023-03-17T01:55:25.554Z,2.04
2023-03-17T01:58:04.931Z,2.09
2023-03-17T02:00:50.071Z,2.05
2023-03-17T02:03:31.134Z,2.11
2023-03-17T02:06:10.646Z,2.01
2023-03-17T02:09:07.444Z,2.00
2023-03-17T02:11:43.967Z,1.73
2023-03-17T02:14:27.568Z,1.88
2023-03-17T02:17:19.347Z,1.78
2023-03-17T02:20:08.650Z,1.63
2023-03-17T02:22:47.512Z,1.69
2023-03-17T02:25:37.482Z,1.92
2023-03-17T02:28:22.679Z,1.99
2023-03-17T02:30:56.580Z,2.08
2023-03-17T02:33:37.764Z,2.08
2023-03-17T02:36:19.505Z,2.14
2023-03-17T02:39:09.808Z,2.17
2023-03-17T02:41:49.195Z,2.14
2023-03-17T02:44:30.359Z,2.18
2023-03-17T02:47:13.267Z,2.19
2023-03-17T02:49:51.866Z,2.22
2023-03-17T02:52:23.170Z,2.23
2023-03-17T02:55:05.397Z,2.20
2023-03-17T02:57:51.078Z,2.33
2023-03-17T03:00:39.810Z,2.35
2023-03-17T03:03:21.614Z,2.14
2023-03-17T03:06:00.022Z,2.33
2023-03-17T03:08:41.415Z,2.25
2023-03-17T03:11:27.609Z,2.18
2023-03-17T03:14:03.069Z,2.02
2023-03-17T03:16:48.288Z,2.22
2023-03-17T03:19:34.555Z,2.23
2023-03-17T03:22:14.831Z,2.12
2023-03-17T03:24:53.454Z,2.20
2023-03-17T03:27:42.572Z,2.20
2023-03-17T03:30:25.609Z,2.25
2023-03-17T03:33:01.691Z,2.25
2023-03-17T03:35:45.828Z,2.20
2023-03-17T03:38:22.355Z,1.98
2023-03-17T03:40:58.110Z,2.12
2023-03-17T03:43:44.328Z,2.22
2023-03-17T03:46:27.351Z,2.19
2023-03-17T03:49:02.043Z,2.19
2023-03-17T03:51:39.465Z,2.17
2023-03-17T03:54:24.098Z,2.23
2023-03-17T03:57:07.190Z,2.18
2023-03-17T03:59:48.276Z,2.14
2023-03-17T04:02:25.193Z,2.20
2023-03-17T04:05:03.601Z,2.16
2023-03-17T04:07:45.142Z,2.19
2023-03-17T04:10:21.484Z,2.15
2023-03-17T04:13:00.600Z,2.16
2023-03-17T04:16:01.714Z,2.09
2023-03-17T04:18:39.147Z,2.10
2023-03-17T04:21:15.290Z,2.07
2023-03-17T04:23:53.637Z,2.06
2023-03-17T04:26:39.996Z,2.02
2023-03-17T04:29:19.729Z,2.02
2023-03-17T04:32:01.686Z,2.00
2023-03-17T04:34:42.070Z,1.73
2023-03-17T04:37:19.108Z,1.88
2023-03-17T04:39:58.761Z,1.83
2023-03-17T04:42:40.192Z,1.85
2023-03-17T04:45:19.373Z,1.88
2023-03-17T04:48:01.894Z,1.79
2023-03-17T04:50:43.534Z,1.83
2023-03-17T04:53:26.841Z,1.75
2023-03-17T04:56:05.742Z,1.59
2023-03-17T04:58:40.134Z,1.60
2023-03-17T05:01:19.614Z,1.45
2023-03-17T05:04:03.945Z,1.33
2023-03-17T05:06:42.973Z,1.43
2023-03-17T05:09:20.512Z,1.51
2023-03-17T05:11:57.454Z,1.26
2023-03-17T05:14:33.717Z,1.53
2023-03-17T05:17:07.857Z,1.60
2023-03-17T05:19:55.601Z,1.64
2023-03-17T05:22:42.493Z,1.69
2023-03-17T05:25:21.612Z,1.74
2023-03-17T05:27:56.851Z,1.73
2023-03-17T05:30:41.644Z,1.65
2023-03-17T05:33:24.833Z,1.71
2023-03-17T05:36:04.576Z,1.70
2023-03-17T05:38:38.732Z,1.55
2023-03-17T05:41:22.622Z,1.67
2023-03-17T05:43:58.913Z,1.69
2023-03-17T05:46:37.780Z,1.68
2023-03-17T05:49:19.761Z,1.68
2023-03-17T05:52:16.667Z,1.76
2023-03-17T05:54:53.698Z,1.68
2023-03-17T05:57:36.858Z,1.70
2023-03-17T06:03:15.391Z,1.78
2023-03-17T06:05:55.525Z,1.71
2023-03-17T06:08:54.279Z,1.99
2023-03-17T06:11:44.811Z,2.05
2023-03-17T06:14:27.121Z,1.97
2023-03-17T06:17:05.416Z,1.99
2023-03-17T06:19:49.430Z,2.32
2023-03-17T06:22:46.291Z,2.29
2023-03-17T06:25:37.765Z,2.31
2023-03-17T06:28:15.026Z,2.28
2023-03-17T06:30:52.864Z,2.37
2023-03-17T06:33:28.303Z,2.49
2023-03-17T06:36:06.181Z,2.59
2023-03-17T06:38:51.452Z,2.74
2023-03-17T06:41:33.885Z,2.79
2023-03-17T06:44:15.175Z,2.65
2023-03-17T06:46:55.997Z,2.83
2023-03-17T06:49:51.162Z,2.89
2023-03-17T06:52:40.818Z,3.16
2023-03-17T06:55:18.724Z,3.21
2023-03-17T06:58:01.765Z,3.13
2023-03-17T07:00:42.070Z,3.28
2023-03-17T07:03:22.377Z,3.39
2023-03-17T07:06:05.225Z,3.42
2023-03-17T07:08:52.675Z,3.47
2023-03-17T07:11:40.063Z,3.58
2023-03-17T07:14:29.022Z,3.47
2023-03-17T07:17:06.302Z,3.70
2023-03-17T07:19:47.358Z,3.69
2023-03-17T07:22:24.929Z,3.55
2023-03-17T07:24:58.219Z,3.59
2023-03-17T07:27:34.242Z,3.68
2023-03-17T07:30:26.410Z,3.77
2023-03-17T07:33:04.850Z,3.91
2023-03-17T07:35:49.430Z,4.08
2023-03-17T07:38:28.311Z,4.24
2023-03-17T07:41:17.643Z,4.36
2023-03-17T07:43:54.530Z,4.40
2023-03-17T07:46:35.862Z,4.48
2023-03-17T07:49:41.383Z,4.42
2023-03-17T07:52:24.833Z,4.59
2023-03-17T07:54:59.433Z,4.69
2023-03-17T07:57:34.339Z,4.56
2023-03-17T08:00:16.358Z,4.75
2023-03-17T08:03:09.819Z,4.87
2023-03-17T08:05:48.347Z,4.93
2023-03-17T08:08:30.865Z,5.07
2023-03-17T08:11:11.575Z,4.95
2023-03-17T08:13:51.850Z,5.12
2023-03-17T08:16:30.994Z,5.08
2023-03-17T08:19:20.084Z,5.00
2023-03-17T08:22:00.726Z,4.89
2023-03-17T08:24:42.968Z,5.46
2023-03-17T08:27:41.310Z,5.36
2023-03-17T08:30:33.811Z,5.55
2023-03-17T08:33:14.753Z,5.42
2023-03-17T08:36:06.607Z,5.76
2023-03-17T08:38:49.526Z,5.79
2023-03-17T08:41:32.424Z,6.03
2023-03-17T08:44:10.381Z,6.09
2023-03-17T08:46:53.168Z,6.11
2023-03-17T08:49:29.350Z,6.21
2023-03-17T08:52:14.246Z,6.35
2023-03-17T08:54:54.432Z,6.37
2023-03-17T08:57:42.222Z,6.56
2023-03-17T09:00:24.675Z,6.32
2023-03-17T09:03:01.793Z,6.72
2023-03-17T09:05:43.793Z,6.87
2023-03-17T09:08:22.177Z,6.85
2023-03-17T09:11:02.381Z,7.01
2023-03-17T09:13:38.468Z,6.92
2023-03-17T09:16:23.315Z,7.11
2023-03-17T09:18:58.772Z,7.05
2023-03-17T09:21:34.493Z,7.24
2023-03-17T09:24:14.627Z,7.27
2023-03-17T09:26:53.774Z,7.47
2023-03-17T09:29:27.854Z,7.67
2023-03-17T09:32:02.218Z,7.70
2023-03-17T09:34:46.460Z,7.72
2023-03-17T09:37:24.186Z,7.78
2023-03-17T09:40:11.435Z,7.72
2023-03-17T09:42:59.385Z,7.91
2023-03-17T09:45:51.588Z,8.08
2023-03-17T09:48:51.135Z,8.15
2023-03-17T09:51:25.089Z,8.24
2023-03-17T09:54:17.256Z,8.36
2023-03-17T09:56:55.873Z,8.37
2023-03-17T09:59:48.505Z,7.89
2023-03-17T10:02:30.191Z,8.39
2023-03-17T10:05:15.014Z,8.59
2023-03-17T10:08:22.727Z,8.64
2023-03-17T10:11:20.455Z,8.72
2023-03-17T10:14:14.058Z,8.80
2023-03-17T10:17:05.490Z,8.72
2023-03-17T10:19:56.700Z,8.75
2023-03-17T10:22:49.206Z,8.91
2023-03-17T10:25:26.491Z,9.03
2023-03-17T10:28:15.351Z,9.27
2023-03-17T10:30:54.016Z,9.38
2023-03-17T10:33:28.743Z,9.37
2023-03-17T10:36:19.391Z,9.24
2023-03-17T10:39:05.124Z,9.57
2023-03-17T10:41:46.171Z,9.67
2023-03-17T10:44:36.117Z,9.65
2023-03-17T10:47:29.505Z,9.63
2023-03-17T10:50:33.247Z,9.86
2023-03-17T10:53:33.893Z,9.75
2023-03-17T10:56:13.063Z,9.81
2023-03-17T10:58:54.460Z,9.64
2023-03-17T11:01:57.076Z,9.88
2023-03-17T11:04:46.014Z,9.98
2023-03-17T11:07:26.833Z,10.15
2023-03-17T11:10:16.658Z,10.24
2023-03-17T11:13:01.598Z,10.28
2023-03-17T11:15:46.404Z,10.28
2023-03-17T11:18:35.330Z,10.08
2023-03-17T11:21:25.251Z,10.27
2023-03-17T11:24:06.179Z,10.17
2023-03-17T11:27:13.897Z,10.51
2023-03-17T11:30:19.264Z,10.51
2023-03-17T11:33:03.116Z,10.53
2023-03-17T11:36:04.844Z,10.63
2023-03-17T11:39:05.322Z,10.59
2023-03-17T11:42:04.615Z,10.71
2023-03-17T11:45:13.285Z,10.78
2023-03-17T11:47:59.289Z,10.79
2023-03-17T11:50:50.399Z,10.98
2023-03-17T11:54:03.273Z,11.06
2023-03-17T11:56:43.106Z,10.99
2023-03-17T11:59:45.747Z,11.03
2023-03-17T12:02:47.201Z,11.04
2023-03-17T12:05:32.765Z,10.91
2023-03-17T12:08:18.695Z,10.98
2023-03-17T12:10:59.372Z,11.06
2023-03-17T12:16:48.207Z,11.21
2023-03-17T12:19:31.748Z,11.43
2023-03-17T12:22:26.174Z,11.42
2023-03-17T12:25:23.338Z,11.43
2023-03-17T12:28:16.653Z,11.69
2023-03-17T12:30:59.731Z,11.73
2023-03-17T12:33:57.603Z,11.84
2023-03-17T12:36:47.473Z,11.78
2023-03-17T12:39:29.425Z,11.92
2023-03-17T12:42:31.943Z,12.12
2023-03-17T12:45:46.703Z,12.01
2023-03-17T12:48:34.865Z,12.04
2023-03-17T12:51:48.848Z,12.11
2023-03-17T12:54:36.695Z,12.07
2023-03-17T12:57:23.326Z,12.08
2023-03-17T13:00:12.613Z,12.36
2023-03-17T13:03:29.002Z,12.55
2023-03-17T13:06:39.887Z,12.43
2023-03-17T13:09:34.152Z,11.95
2023-03-17T13:12:31.920Z,12.15
2023-03-17T13:15:27.828Z,12.33
2023-03-17T13:18:40.316Z,12.31
2023-03-17T13:21:34.017Z,12.09
2023-03-17T13:24:29.498Z,12.23
2023-03-17T13:27:10.582Z,12.39
2023-03-17T13:29:56.899Z,12.64
2023-03-17T13:33:10.069Z,12.85
2023-03-17T13:36:03.326Z,13.01
2023-03-17T13:39:27.544Z,13.19
2023-03-17T13:42:28.285Z,13.02
2023-03-17T13:45:33.501Z,13.01
2023-03-17T13:48:35.168Z,12.85
2023-03-17T13:51:18.752Z,12.83
2023-03-17T13:54:02.642Z,12.93
2023-03-17T13:57:02.494Z,12.91
2023-03-17T13:59:58.953Z,13.08
2023-03-17T14:02:44.332Z,13.04
2023-03-17T14:05:31.293Z,13.24
2023-03-17T14:08:20.364Z,13.23
2023-03-17T14:11:01.912Z,13.17
2023-03-17T14:13:50.025Z,13.05
2023-03-17T14:16:31.629Z,13.02
2023-03-17T14:19:30.750Z,13.03
2023-03-17T14:22:25.007Z,13.19
2023-03-17T14:25:04.216Z,13.29
2023-03-17T14:27:39.337Z,13.37
2023-03-17T14:30:22.124Z,13.38
2023-03-17T14:32:59.902Z,13.44
2023-03-17T14:35:49.604Z,13.42
2023-03-17T14:38:32.769Z,13.54
2023-03-17T14:41:30.707Z,13.60
2023-03-17T14:44:11.127Z,13.60
2023-03-17T14:47:05.361Z,13.63
2023-03-17T14:49:43.529Z,13.52
2023-03-17T14:52:32.807Z,13.40
2023-03-17T14:55:12.601Z,13.28
2023-03-17T14:57:55.008Z,13.40
2023-03-17T15:00:57.535Z,13.54
2023-03-17T15:03:42.728Z,13.58
2023-03-17T15:06:37.320Z,13.46
2023-03-17T15:09:33.860Z,13.75
2023-03-17T15:12:21.384Z,13.74
2023-03-17T15:15:05.155Z,13.77
2023-03-17T15:17:44.663Z,13.81
2023-03-17T15:20:24.324Z,13.92
2023-03-17T15:23:14.315Z,14.04
2023-03-17T15:25:58.584Z,14.03
2023-03-17T15:28:43.807Z,14.05
2023-03-17T15:31:31.580Z,13.90
2023-03-17T15:34:10.380Z,13.92
2023-03-17T15:36:50.125Z,13.86
2023-03-17T15:39:29.290Z,13.71
2023-03-17T15:42:05.620Z,13.61
2023-03-17T15:44:43.109Z,13.39
2023-03-17T15:47:25.566Z,13.39
2023-03-17T15:50:17.547Z,13.15
2023-03-17T15:52:56.454Z,13.08
2023-03-17T15:55:34.636Z,12.85
2023-03-17T15:58:12.435Z,13.00
2023-03-17T16:00:59.500Z,12.90
2023-03-17T16:03:40.421Z,12.91
2023-03-17T16:06:26.409Z,12.94
2023-03-17T16:09:09.592Z,12.72
2023-03-17T16:11:54.917Z,12.79
2023-03-17T16:14:36.140Z,12.77
2023-03-17T16:17:22.783Z,12.67
2023-03-17T16:20:06.304Z,12.57
2023-03-17T16:22:51.049Z,12.58
2023-03-17T16:25:32.674Z,12.30
2023-03-17T16:28:22.587Z,12.43
2023-03-17T16:31:03.659Z,12.27
2023-03-17T16:33:45.822Z,12.21
2023-03-17T16:36:33.586Z,12.08
2023-03-17T16:39:12.572Z,11.96
2023-03-17T16:41:51.334Z,11.94
2023-03-17T16:44:40.385Z,11.88
2023-03-17T16:47:19.995Z,11.80
2023-03-17T16:50:04.833Z,11.75
2023-03-17T16:53:00.290Z,11.66
2023-03-17T16:55:34.353Z,11.64
2023-03-17T16:58:22.752Z,11.59
2023-03-17T17:01:11.614Z,11.52
2023-03-17T17:03:47.486Z,11.48
2023-03-17T17:06:28.261Z,11.46
2023-03-17T17:09:12.859Z,11.32
2023-03-17T17:11:51.208Z,11.39
2023-03-17T17:14:32.406Z,11.35
2023-03-17T17:17:20.098Z,11.24
2023-03-17T17:19:58.731Z,11.28
2023-03-17T17:22:44.317Z,11.21
2023-03-17T17:25:25.392Z,11.04
2023-03-17T17:28:05.033Z,11.18
2023-03-17T17:30:50.106Z,11.12
2023-03-17T17:33:27.187Z,10.91
2023-03-17T17:36:02.601Z,10.95
2023-03-17T17:38:52.824Z,10.98
2023-03-17T17:41:35.698Z,10.95
2023-03-17T17:44:19.904Z,10.87
2023-03-17T17:47:03.913Z,10.63
2023-03-17T17:49:38.747Z,10.75
2023-03-17T17:52:25.192Z,10.67
2023-03-17T17:55:01.366Z,10.50
2023-03-17T17:58:07.416Z,10.56
2023-03-17T18:00:39.360Z,10.53
2023-03-17T18:03:13.582Z,10.52
2023-03-17T18:05:49.809Z,10.51
2023-03-17T18:08:27.898Z,10.51
2023-03-17T18:11:05.707Z,10.48
2023-03-17T18:13:45.126Z,10.29
2023-03-17T18:16:31.324Z,10.11
2023-03-17T18:19:15.025Z,10.35
2023-03-17T18:21:48.651Z,10.36
2023-03-17T18:24:47.431Z,10.34
2023-03-17T18:27:24.684Z,10.28
2023-03-17T18:30:09.658Z,10.23
2023-03-17T18:32:51.830Z,10.13
2023-03-17T18:35:27.922Z,10.13
2023-03-17T18:38:11.997Z,10.03
2023-03-17T18:40:54.139Z,10.08
2023-03-17T18:43:36.620Z,10.07
2023-03-17T18:46:15.414Z,10.03
2023-03-17T18:48:59.142Z,9.99
2023-03-17T18:51:41.744Z,9.99
2023-03-17T18:54:41.180Z,9.90
2023-03-17T18:57:17.096Z,9.83
2023-03-17T19:00:06.051Z,9.75
2023-03-17T19:02:42.090Z,9.73
2023-03-17T19:05:28.726Z,9.75
2023-03-17T19:08:26.683Z,9.64
2023-03-17T19:11:06.058Z,9.61
2023-03-17T19:13:52.248Z,9.56
2023-03-17T19:16:32.285Z,9.45
2023-03-17T19:19:16.825Z,9.36
2023-03-17T19:21:58.343Z,9.28
2023-03-17T19:24:45.231Z,9.24
2023-03-17T19:27:28.977Z,9.14
2023-03-17T19:30:15.048Z,9.08
2023-03-17T19:32:56.764Z,9.02
2023-03-17T19:35:53.907Z,8.98
2023-03-17T19:38:35.840Z,8.93
2023-03-17T19:41:13.721Z,8.98
2023-03-17T19:43:45.165Z,8.93
2023-03-17T19:46:25.806Z,9.07
2023-03-17T19:49:09.378Z,9.00
2023-03-17T19:51:53.885Z,8.92
2023-03-17T19:54:28.561Z,8.97
2023-03-17T19:57:02.349Z,8.95
2023-03-17T19:59:35.611Z,8.61
2023-03-17T20:02:08.396Z,8.84
2023-03-17T20:04:48.714Z,8.82
2023-03-17T20:07:27.739Z,8.81
2023-03-17T20:10:03.160Z,8.78
2023-03-17T20:12:42.792Z,8.71
2023-03-17T20:15:37.281Z,8.65
2023-03-17T20:18:14.545Z,8.74
2023-03-17T20:20:51.147Z,8.74
2023-03-17T20:23:28.537Z,8.52
2023-03-17T20:26:19.999Z,8.58
2023-03-17T20:28:53.665Z,8.46
2023-03-17T20:31:47.570Z,8.43
2023-03-17T20:34:42.407Z,8.37
2023-03-17T20:37:41.045Z,8.35
2023-03-17T20:40:23.012Z,8.36
2023-03-17T20:43:04.131Z,8.34
2023-03-17T20:45:41.903Z,8.23
2023-03-17T20:48:17.294Z,8.15
2023-03-17T20:50:58.191Z,8.05
2023-03-17T20:54:08.493Z,8.04
2023-03-17T20:57:05.208Z,8.02
2023-03-17T20:59:44.055Z,7.93
2023-03-17T21:02:26.441Z,7.92
2023-03-17T21:05:11.530Z,7.96
2023-03-17T21:07:57.940Z,7.87
2023-03-17T21:10:37.213Z,7.94
2023-03-17T21:13:17.089Z,7.62
2023-03-17T21:16:04.164Z,7.81
2023-03-17T21:18:43.722Z,7.86
2023-03-17T21:21:21.649Z,7.88
2023-03-17T21:24:11.488Z,7.84
2023-03-17T21:27:02.950Z,7.76
2023-03-17T21:29:52.604Z,7.72
2023-03-17T21:32:29.745Z,7.68
2023-03-17T21:35:18.920Z,7.61
2023-03-17T21:38:03.987Z,7.65
2023-03-17T21:40:40.549Z,7.68
2023-03-17T21:43:25.689Z,7.78
2023-03-17T21:46:14.787Z,7.82
2023-03-17T21:48:53.869Z,7.83
2023-03-17T21:54:29.445Z,7.81
2023-03-17T21:57:08.682Z,7.80
2023-03-17T21:59:48.078Z,7.60
2023-03-17T22:02:30.661Z,7.70
2023-03-17T22:05:13.888Z,7.74
2023-03-17T22:07:58.430Z,7.76
2023-03-17T22:10:35.860Z,7.78
2023-03-17T22:13:28.136Z,7.76
2023-03-17T22:16:17.152Z,7.69
2023-03-17T22:19:02.774Z,7.61
2023-03-17T22:21:41.121Z,7.57
2023-03-17T22:24:26.223Z,7.50
2023-03-17T22:27:02.473Z,7.40
2023-03-17T22:29:38.714Z,7.34
2023-03-17T22:32:27.230Z,7.29
2023-03-17T22:35:04.797Z,7.18
2023-03-17T22:37:42.443Z,7.16
2023-03-17T22:40:26.555Z,7.09
2023-03-17T22:43:18.825Z,7.03
2023-03-17T22:45:59.760Z,6.99
2023-03-17T22:48:41.760Z,7.01
2023-03-17T22:51:27.599Z,6.95
2023-03-17T22:54:17.834Z,6.99
2023-03-17T22:56:55.712Z,6.95
2023-03-17T22:59:38.494Z,6.90
2023-03-17T23:02:18.045Z,6.86
2023-03-17T23:05:12.451Z,6.84
2023-03-17T23:07:53.104Z,6.82
2023-03-17T23:10:32.214Z,6.66
2023-03-17T23:13:08.964Z,6.88
2023-03-17T23:15:51.679Z,6.77
2023-03-17T23:18:30.082Z,6.89
2023-03-17T23:21:18.717Z,6.97
2023-03-17T23:24:10.028Z,6.98
2023-03-17T23:26:50.877Z,7.04
2023-03-17T23:29:32.059Z,7.06
2023-03-17T23:32:20.576Z,7.08
2023-03-17T23:35:07.221Z,7.08
2023-03-17T23:37:45.324Z,7.04
2023-03-17T23:40:23.813Z,7.06
2023-03-17T23:42:59.075Z,7.03
2023-03-17T23:45:42.160Z,7.08
2023-03-17T23:48:20.869Z,7.09
2023-03-17T23:50:58.042Z,7.03
2023-03-17T23:53:33.536Z,6.97
2023-03-17T23:56:15.069Z,6.98
2023-03-17T23:59:02.852Z,6.99
